createdAt,value
2023-10-12T00:02:10.536Z,10.30
2023-10-12T00:04:39.348Z,10.10
2023-10-12T00:07:16.661Z,10.20
2023-10-12T00:09:50.122Z,10.40
2023-10-12T00:12:22.658Z,10.40
2023-10-12T00:14:49.581Z,10.20
2023-10-12T00:17:18.839Z,10.10
2023-10-12T00:19:46.022Z,10.10
2023-10-12T00:22:16.750Z,10.20
2023-10-12T00:24:45.134Z,10.20
2023-10-12T00:27:14.037Z,10.40
2023-10-12T00:29:40.969Z,10.10
2023-10-12T00:32:09.015Z,9.80
2023-10-12T00:34:40.938Z,9.90
2023-10-12T00:37:08.237Z,9.60
2023-10-12T00:39:59.809Z,9.70
2023-10-12T00:42:30.750Z,9.90
2023-10-12T00:44:57.575Z,9.90
2023-10-12T00:47:31.073Z,9.70
2023-10-12T00:50:08.149Z,9.70
2023-10-12T00:52:53.389Z,9.80
2023-10-12T00:55:24.840Z,9.70
2023-10-12T00:57:52.527Z,9.90
2023-10-12T01:00:20.016Z,9.90
2023-10-12T01:03:07.096Z,9.70
2023-10-12T01:05:37.081Z,9.80
2023-10-12T01:08:06.755Z,9.80
2023-10-12T01:10:34.298Z,9.70
2023-10-12T01:13:04.245Z,9.70
2023-10-12T01:15:32.088Z,9.60
2023-10-12T01:17:59.046Z,9.60
2023-10-12T01:20:30.470Z,9.40
2023-10-12T01:23:00.734Z,9.50
2023-10-12T01:25:31.187Z,9.50
2023-10-12T01:28:01.849Z,9.60
2023-10-12T01:30:30.498Z,9.50
2023-10-12T01:33:01.190Z,9.60
2023-10-12T01:35:40.970Z,9.60
2023-10-12T01:38:09.568Z,9.70
2023-10-12T01:41:02.516Z,9.40
2023-10-12T01:43:30.586Z,9.30
2023-10-12T01:46:02.827Z,9.30
2023-10-12T01:48:35.084Z,9.50
2023-10-12T01:51:16.140Z,9.60
2023-10-12T01:53:43.392Z,9.70
2023-10-12T01:56:13.048Z,9.80
2023-10-12T01:58:44.770Z,9.60
2023-10-12T02:01:20.046Z,9.70
2023-10-12T02:03:49.315Z,9.80
2023-10-12T02:06:18.157Z,9.30
2023-10-12T02:08:45.748Z,9.20
2023-10-12T02:11:16.779Z,9.30
2023-10-12T02:13:48.527Z,9.40
2023-10-12T02:16:25.873Z,9.10
2023-10-12T02:18:56.622Z,9.00
2023-10-12T02:21:25.198Z,9.20
2023-10-12T02:23:53.358Z,9.10
2023-10-12T02:26:37.954Z,9.20
2023-10-12T02:29:09.976Z,9.10
2023-10-12T02:31:40.835Z,9.10
2023-10-12T02:34:13.997Z,9.00
2023-10-12T02:36:40.987Z,9.00
2023-10-12T02:39:22.116Z,9.20
2023-10-12T02:41:57.652Z,9.40
2023-10-12T02:44:24.498Z,9.50
2023-10-12T02:47:20.491Z,8.90
2023-10-12T02:49:48.210Z,9.00
2023-10-12T02:52:16.323Z,9.10
2023-10-12T02:54:55.787Z,9.10
2023-10-12T02:57:27.421Z,9.00
2023-10-12T03:00:22.971Z,9.10
2023-10-12T03:02:53.753Z,8.70
2023-10-12T03:05:33.136Z,8.60
2023-10-12T03:08:07.492Z,8.90
2023-10-12T03:10:34.408Z,8.80
2023-10-12T03:13:06.133Z,8.90
2023-10-12T03:15:43.423Z,9.00
2023-10-12T03:18:13.739Z,9.10
2023-10-12T03:20:53.649Z,9.20
2023-10-12T03:23:21.008Z,8.90
2023-10-12T03:25:53.495Z,8.90
2023-10-12T03:28:37.374Z,8.90
2023-10-12T03:31:22.364Z,8.90
2023-10-12T03:33:55.384Z,8.70
2023-10-12T03:36:27.255Z,8.60
2023-10-12T03:39:13.608Z,8.80
2023-10-12T03:42:07.876Z,8.90
2023-10-12T03:44:34.776Z,8.60
2023-10-12T03:47:05.795Z,8.70
2023-10-12T03:49:46.442Z,8.80
2023-10-12T03:52:16.214Z,8.70
2023-10-12T03:55:01.238Z,8.70
2023-10-12T03:57:36.079Z,8.70
2023-10-12T04:00:11.315Z,8.70
2023-10-12T04:02:51.378Z,8.60
2023-10-12T04:05:22.264Z,8.40
2023-10-12T04:07:52.266Z,8.60
2023-10-12T04:10:38.674Z,8.60
2023-10-12T04:13:09.371Z,8.60
2023-10-12T04:15:55.352Z,8.50
2023-10-12T04:18:29.718Z,8.50
2023-10-12T04:20:59.458Z,8.40
2023-10-12T04:23:45.789Z,8.70
2023-10-12T04:26:15.343Z,8.50
2023-10-12T04:28:59.365Z,8.50
2023-10-12T04:31:30.144Z,8.50
2023-10-12T04:34:06.415Z,8.30
2023-10-12T04:36:38.933Z,8.50
2023-10-12T04:39:05.911Z,8.50
2023-10-12T04:41:48.482Z,8.60
2023-10-12T04:44:30.389Z,8.40
2023-10-12T04:47:00.280Z,8.50
2023-10-12T04:49:31.758Z,8.50
2023-10-12T04:54:57.856Z,8.10
2023-10-12T04:57:28.535Z,8.40
2023-10-12T05:00:13.390Z,8.50
2023-10-12T05:02:55.009Z,8.60
2023-10-12T05:05:24.204Z,8.40
2023-10-12T05:07:58.930Z,8.50
2023-10-12T05:10:38.399Z,8.60
2023-10-12T05:13:07.998Z,8.40
2023-10-12T05:15:47.845Z,8.10
2023-10-12T05:18:18.974Z,8.30
2023-10-12T05:20:46.120Z,8.40
2023-10-12T05:23:13.312Z,8.40
2023-10-12T05:25:59.247Z,8.50
2023-10-12T05:28:29.337Z,8.70
2023-10-12T05:31:09.963Z,8.70
2023-10-12T05:33:44.398Z,8.40
2023-10-12T05:36:15.780Z,8.40
2023-10-12T05:38:52.800Z,8.60
2023-10-12T05:41:36.110Z,8.40
2023-10-12T05:44:04.594Z,8.30
2023-10-12T05:46:35.412Z,8.50
2023-10-12T05:49:03.824Z,8.60
2023-10-12T05:51:30.838Z,8.50
2023-10-12T05:54:08.888Z,8.50
2023-10-12T05:56:35.774Z,8.70
2023-10-12T05:59:05.155Z,8.70
2023-10-12T06:04:09.542Z,8.50
2023-10-12T06:06:37.444Z,8.70
2023-10-12T06:09:13.575Z,8.90
2023-10-12T06:11:45.676Z,9.00
2023-10-12T06:14:16.145Z,8.90
2023-10-12T06:16:46.512Z,8.90
2023-10-12T06:19:23.555Z,8.80
2023-10-12T06:21:53.377Z,8.90
2023-10-12T06:24:32.255Z,9.00
2023-10-12T06:26:59.255Z,9.20
2023-10-12T06:29:26.760Z,9.30
2023-10-12T06:31:59.041Z,9.40
2023-10-12T06:34:33.574Z,9.50
2023-10-12T06:37:12.630Z,9.50
2023-10-12T06:40:02.161Z,9.60
2023-10-12T06:42:29.320Z,9.70
2023-10-12T06:44:57.607Z,9.70
2023-10-12T06:47:35.084Z,9.90
2023-10-12T06:50:02.071Z,10.00
2023-10-12T06:52:31.007Z,10.00
2023-10-12T06:55:00.927Z,10.30
2023-10-12T06:57:27.940Z,10.50
2023-10-12T07:00:01.891Z,10.60
2023-10-12T07:02:30.047Z,10.70
2023-10-12T07:05:02.809Z,10.70
2023-10-12T07:07:38.284Z,10.70
2023-10-12T07:10:21.631Z,10.80
2023-10-12T07:12:54.304Z,10.90
2023-10-12T07:15:35.234Z,11.20
2023-10-12T07:18:08.485Z,11.20
2023-10-12T07:20:35.478Z,11.40
2023-10-12T07:23:30.672Z,11.40
2023-10-12T07:26:01.439Z,11.50
2023-10-12T07:28:34.305Z,11.70
2023-10-12T07:31:16.787Z,11.80
2023-10-12T07:33:56.514Z,11.90
2023-10-12T07:36:42.466Z,12.10
2023-10-12T07:39:19.185Z,12.30
2023-10-12T07:42:01.908Z,12.40
2023-10-12T07:44:41.020Z,12.50
2023-10-12T07:47:20.797Z,12.70
2023-10-12T07:49:52.473Z,12.70
2023-10-12T07:52:22.012Z,12.70
2023-10-12T07:54:49.473Z,12.80
2023-10-12T07:57:17.361Z,13.00
2023-10-12T08:00:00.731Z,13.00
2023-10-12T08:03:00.487Z,13.20
2023-10-12T08:05:39.205Z,13.40
2023-10-12T08:08:06.831Z,13.70
2023-10-12T08:10:44.984Z,13.80
2023-10-12T08:13:22.158Z,13.90
2023-10-12T08:15:57.984Z,14.10
2023-10-12T08:18:48.595Z,14.30
2023-10-12T08:21:28.736Z,14.40
2023-10-12T08:24:05.672Z,14.70
2023-10-12T08:26:42.033Z,14.90
2023-10-12T08:29:23.013Z,15.10
2023-10-12T08:31:56.263Z,15.30
2023-10-12T08:34:35.029Z,15.40
2023-10-12T08:37:12.207Z,15.60
2023-10-12T08:39:52.845Z,15.80
2023-10-12T08:42:24.448Z,16.00
2023-10-12T08:44:52.893Z,16.20
2023-10-12T08:47:32.099Z,16.40
2023-10-12T08:50:06.347Z,16.70
2023-10-12T08:52:34.213Z,16.90
2023-10-12T08:55:12.853Z,16.90
2023-10-12T08:58:04.238Z,16.90
2023-10-12T09:00:34.914Z,17.00
2023-10-12T09:03:08.560Z,17.00
2023-10-12T09:05:36.667Z,17.10
2023-10-12T09:08:14.960Z,17.20
2023-10-12T09:10:53.238Z,17.40
2023-10-12T09:13:21.145Z,17.70
2023-10-12T09:15:56.293Z,17.90
2023-10-12T09:18:28.119Z,18.00
2023-10-12T09:21:04.236Z,18.10
2023-10-12T09:23:42.926Z,18.30
2023-10-12T09:26:10.334Z,18.60
2023-10-12T09:28:49.468Z,18.70
2023-10-12T09:31:36.492Z,18.80
2023-10-12T09:34:11.631Z,18.90
2023-10-12T09:36:39.818Z,19.10
2023-10-12T09:39:16.510Z,19.00
2023-10-12T09:41:55.809Z,19.00
2023-10-12T09:44:27.638Z,19.10
2023-10-12T09:46:57.958Z,19.40
2023-10-12T09:49:28.537Z,19.40
2023-10-12T09:52:07.113Z,19.50
2023-10-12T09:54:50.376Z,19.40
2023-10-12T09:57:24.798Z,19.30
2023-10-12T10:00:00.535Z,19.30
2023-10-12T10:02:35.316Z,19.20
2023-10-12T10:05:12.971Z,19.20
2023-10-12T10:07:54.050Z,19.10
2023-10-12T10:10:35.493Z,19.10
2023-10-12T10:13:13.941Z,19.00
2023-10-12T10:16:01.953Z,19.10
2023-10-12T10:18:43.678Z,19.20
2023-10-12T10:21:10.535Z,19.30
2023-10-12T10:23:38.600Z,19.30
2023-10-12T10:26:18.740Z,19.40
2023-10-12T10:29:05.923Z,19.70
2023-10-12T10:31:35.172Z,19.90
2023-10-12T10:34:08.920Z,20.20
2023-10-12T10:36:36.144Z,20.30
2023-10-12T10:39:24.949Z,20.40
2023-10-12T10:41:57.555Z,20.50
2023-10-12T10:44:27.305Z,20.80
2023-10-12T10:46:58.882Z,20.90
2023-10-12T10:49:34.406Z,21.00
2023-10-12T10:52:05.099Z,21.10
2023-10-12T10:54:34.224Z,21.20
2023-10-12T10:57:16.087Z,21.40
2023-10-12T10:59:47.355Z,21.50
2023-10-12T11:02:16.132Z,21.60
2023-10-12T11:04:46.208Z,21.80
2023-10-12T11:07:15.326Z,21.80
2023-10-12T11:09:55.675Z,21.80
2023-10-12T11:12:24.934Z,21.90
2023-10-12T11:15:01.914Z,22.00
2023-10-12T11:17:37.326Z,22.10
2023-10-12T11:20:10.017Z,22.10
2023-10-12T11:22:41.394Z,22.10
2023-10-12T11:25:20.690Z,22.10
2023-10-12T11:27:47.686Z,22.10
2023-10-12T11:30:33.234Z,22.10
2023-10-12T11:33:02.221Z,22.30
2023-10-12T11:35:42.364Z,22.40
2023-10-12T11:38:19.327Z,22.30
2023-10-12T11:40:53.919Z,22.30
2023-10-12T11:43:22.829Z,22.40
2023-10-12T11:46:04.205Z,22.40
2023-10-12T11:48:32.625Z,22.40
2023-10-12T11:51:12.309Z,22.50
2023-10-12T11:53:41.071Z,22.60
2023-10-12T11:56:15.372Z,22.80
2023-10-12T11:58:44.438Z,23.00
2023-10-12T12:01:12.075Z,23.10
2023-10-12T12:03:41.374Z,23.10
2023-10-12T12:06:19.143Z,23.20
2023-10-12T12:08:50.113Z,23.20
2023-10-12T12:11:20.783Z,23.30
2023-10-12T12:13:53.874Z,23.40
2023-10-12T12:16:24.036Z,23.30
2023-10-12T12:18:55.421Z,23.30
2023-10-12T12:21:33.068Z,23.40
2023-10-12T12:24:23.444Z,23.30
2023-10-12T12:26:52.998Z,23.40
2023-10-12T12:29:25.737Z,23.40
2023-10-12T12:31:52.745Z,23.40
2023-10-12T12:34:35.474Z,23.40
2023-10-12T12:37:06.511Z,23.50
2023-10-12T12:39:35.341Z,23.50
2023-10-12T12:42:03.527Z,23.70
2023-10-12T12:44:30.465Z,23.70
2023-10-12T12:46:57.553Z,23.60
2023-10-12T12:49:25.589Z,23.60
2023-10-12T12:51:52.666Z,23.60
2023-10-12T12:54:19.811Z,23.70
2023-10-12T12:56:47.652Z,23.80
2023-10-12T12:59:14.572Z,23.90
2023-10-12T13:01:43.336Z,23.70
2023-10-12T13:04:10.818Z,23.80
2023-10-12T13:06:37.754Z,23.90
2023-10-12T13:09:04.802Z,23.90
2023-10-12T13:11:31.642Z,24.00
2023-10-12T13:13:58.405Z,24.10
2023-10-12T13:16:25.477Z,24.10
2023-10-12T13:18:52.417Z,24.00
2023-10-12T13:21:23.409Z,24.00
2023-10-12T13:24:09.972Z,23.90
2023-10-12T13:26:39.470Z,23.60
2023-10-12T13:29:06.305Z,23.30
2023-10-12T13:31:33.238Z,23.10
2023-10-12T13:34:03.361Z,23.10
2023-10-12T13:36:30.244Z,23.40
2023-10-12T13:38:57.698Z,23.50
2023-10-12T13:41:25.736Z,23.50
2023-10-12T13:43:52.776Z,23.60
2023-10-12T13:46:19.728Z,23.60
2023-10-12T13:48:50.437Z,23.60
2023-10-12T13:51:24.556Z,23.80
2023-10-12T13:53:52.264Z,23.60
2023-10-12T13:56:25.275Z,23.20
2023-10-12T13:58:59.601Z,22.80
2023-10-12T14:01:27.671Z,22.80
2023-10-12T14:03:57.503Z,22.70
2023-10-12T14:06:25.621Z,22.60
2023-10-12T14:08:52.856Z,22.40
2023-10-12T14:11:20.728Z,22.30
2023-10-12T14:13:50.019Z,22.20
2023-10-12T14:16:17.166Z,22.10
2023-10-12T14:18:44.583Z,21.90
2023-10-12T14:21:11.893Z,21.90
2023-10-12T14:23:46.864Z,21.80
2023-10-12T14:26:20.522Z,21.70
2023-10-12T14:28:51.408Z,21.60
2023-10-12T14:31:19.217Z,21.50
2023-10-12T14:33:46.211Z,21.30
2023-10-12T14:36:13.316Z,21.20
2023-10-12T14:38:41.625Z,21.20
2023-10-12T14:41:11.321Z,21.00
2023-10-12T14:43:39.149Z,20.90
2023-10-12T14:46:06.585Z,20.80
2023-10-12T14:48:33.848Z,20.70
2023-10-12T14:51:14.304Z,20.60
2023-10-12T14:53:49.186Z,20.50
2023-10-12T14:56:24.467Z,20.40
2023-10-12T14:58:52.221Z,20.40
2023-10-12T15:01:21.508Z,20.20
2023-10-12T15:03:48.558Z,20.20
2023-10-12T15:06:15.629Z,20.10
2023-10-12T15:08:43.866Z,20.00
2023-10-12T15:11:10.907Z,19.90
2023-10-12T15:13:39.288Z,19.80
2023-10-12T15:16:14.166Z,19.70
2023-10-12T15:18:42.997Z,19.70
2023-10-12T15:23:44.511Z,19.60
2023-10-12T15:26:14.849Z,19.50
2023-10-12T15:28:42.049Z,19.40
2023-10-12T15:31:13.055Z,19.30
2023-10-12T15:33:39.978Z,19.30
2023-10-12T15:36:08.549Z,18.80
2023-10-12T15:38:36.532Z,18.30
2023-10-12T15:41:03.709Z,18.00
2023-10-12T15:43:31.009Z,17.80
2023-10-12T15:45:58.599Z,17.80
2023-10-12T15:48:28.224Z,17.80
2023-10-12T15:50:55.628Z,17.80
2023-10-12T15:53:24.321Z,17.80
2023-10-12T15:55:51.659Z,17.60
2023-10-12T15:58:18.816Z,17.60
2023-10-12T16:00:46.678Z,17.60
2023-10-12T16:03:15.660Z,17.50
2023-10-12T16:05:44.205Z,17.20
2023-10-12T16:08:16.162Z,16.80
2023-10-12T16:10:50.733Z,16.50
2023-10-12T16:13:18.337Z,16.30
2023-10-12T16:15:46.023Z,16.20
2023-10-12T16:18:13.561Z,16.20
2023-10-12T16:20:40.828Z,16.10
2023-10-12T16:23:08.037Z,15.90
2023-10-12T16:25:36.048Z,15.80
2023-10-12T16:28:03.686Z,15.90
2023-10-12T16:30:35.981Z,15.80
2023-10-12T16:33:03.671Z,15.70
2023-10-12T16:35:30.788Z,15.90
2023-10-12T16:38:00.774Z,16.00
2023-10-12T16:40:31.139Z,16.00
2023-10-12T16:42:58.086Z,15.70
2023-10-12T16:45:26.192Z,15.50
2023-10-12T16:47:53.096Z,15.70
2023-10-12T16:50:20.167Z,15.90
2023-10-12T16:52:50.716Z,15.90
2023-10-12T16:55:18.886Z,15.90
2023-10-12T16:57:46.903Z,16.00
2023-10-12T17:00:18.208Z,15.80
2023-10-12T17:02:46.796Z,15.60
2023-10-12T17:05:24.442Z,15.50
2023-10-12T17:07:51.339Z,15.00
2023-10-12T17:10:29.694Z,14.70
2023-10-12T17:12:57.156Z,14.60
2023-10-12T17:15:24.583Z,14.80
2023-10-12T17:17:51.769Z,15.00
2023-10-12T17:20:18.878Z,14.60
2023-10-12T17:22:47.367Z,14.50
2023-10-12T17:25:14.731Z,14.40
2023-10-12T17:27:43.398Z,14.60
2023-10-12T17:30:11.998Z,14.40
2023-10-12T17:32:40.030Z,14.50
2023-10-12T17:35:13.272Z,14.50
2023-10-12T17:37:40.884Z,14.50
2023-10-12T17:40:10.410Z,14.60
2023-10-12T17:42:38.105Z,14.70
2023-10-12T17:45:11.198Z,14.80
2023-10-12T17:47:40.034Z,14.90
2023-10-12T17:50:14.356Z,14.80
2023-10-12T17:52:49.037Z,14.80
2023-10-12T17:55:19.178Z,14.60
2023-10-12T17:57:46.780Z,14.50
2023-10-12T18:00:20.111Z,14.40
2023-10-12T18:02:48.660Z,14.40
2023-10-12T18:05:16.268Z,14.40
2023-10-12T18:07:44.591Z,14.50
2023-10-12T18:10:17.125Z,14.40
2023-10-12T18:12:44.483Z,14.40
2023-10-12T18:15:13.534Z,14.40
2023-10-12T18:17:41.033Z,14.30
2023-10-12T18:20:15.752Z,14.40
2023-10-12T18:22:46.674Z,14.40
2023-10-12T18:25:14.533Z,14.40
2023-10-12T18:27:41.581Z,14.50
2023-10-12T18:30:09.544Z,14.50
2023-10-12T18:32:37.597Z,14.50
2023-10-12T18:35:07.957Z,14.40
2023-10-12T18:37:35.065Z,14.40
2023-10-12T18:40:02.278Z,14.40
2023-10-12T18:42:29.247Z,14.50
2023-10-12T18:44:58.953Z,14.50
2023-10-12T18:47:28.904Z,14.50
2023-10-12T18:50:09.899Z,14.40
2023-10-12T18:52:38.994Z,14.30
2023-10-12T18:55:10.098Z,14.30
2023-10-12T18:57:42.901Z,14.30
2023-10-12T19:00:21.247Z,14.30
2023-10-12T19:02:51.242Z,14.30
2023-10-12T19:05:19.190Z,14.30
2023-10-12T19:07:46.103Z,14.10
2023-10-12T19:10:15.157Z,14.10
2023-10-12T19:12:42.622Z,14.00
2023-10-12T19:15:10.919Z,14.10
2023-10-12T19:17:38.196Z,14.30
2023-10-12T19:20:07.088Z,14.40
2023-10-12T19:22:34.977Z,14.20
2023-10-12T19:25:02.368Z,13.90
2023-10-12T19:27:30.319Z,13.80
2023-10-12T19:29:57.264Z,13.70
2023-10-12T19:32:26.200Z,13.60
2023-10-12T19:34:53.928Z,13.50
2023-10-12T19:37:21.064Z,13.60
2023-10-12T19:39:47.975Z,13.50
2023-10-12T19:42:14.844Z,13.40
2023-10-12T19:44:41.702Z,13.40
2023-10-12T19:47:08.770Z,13.30
2023-10-12T19:49:35.891Z,13.30
2023-10-12T19:52:03.197Z,13.40
2023-10-12T19:54:30.071Z,13.50
2023-10-12T19:56:57.268Z,13.40
2023-10-12T19:59:24.258Z,13.20
2023-10-12T20:01:52.837Z,13.20
2023-10-12T20:04:22.923Z,13.20
2023-10-12T20:06:50.147Z,13.30
2023-10-12T20:09:28.340Z,13.20
2023-10-12T20:11:56.093Z,13.30
2023-10-12T20:14:25.818Z,13.30
2023-10-12T20:16:52.800Z,13.30
2023-10-12T20:19:25.072Z,13.20
2023-10-12T20:21:54.231Z,13.20
2023-10-12T20:24:21.125Z,13.20
2023-10-12T20:26:47.977Z,13.10
2023-10-12T20:29:15.470Z,13.20
2023-10-12T20:31:44.460Z,13.20
2023-10-12T20:34:11.496Z,13.20
2023-10-12T20:36:38.440Z,13.30
2023-10-12T20:39:10.028Z,13.30
2023-10-12T20:41:37.916Z,13.20
2023-10-12T20:44:05.088Z,13.20
2023-10-12T20:46:35.636Z,13.20
2023-10-12T20:49:17.678Z,13.30
2023-10-12T20:51:44.695Z,13.10
2023-10-12T20:54:15.106Z,13.00
2023-10-12T20:56:42.189Z,13.00
2023-10-12T20:59:18.357Z,13.00
2023-10-12T21:01:49.371Z,12.80
2023-10-12T21:04:21.923Z,12.90
2023-10-12T21:06:51.809Z,12.80
2023-10-12T21:09:22.038Z,12.60
2023-10-12T21:11:59.108Z,12.40
2023-10-12T21:14:27.561Z,12.50
2023-10-12T21:16:56.724Z,12.40
2023-10-12T21:19:27.082Z,12.20
2023-10-12T21:22:08.571Z,12.40
2023-10-12T21:24:39.012Z,12.60
2023-10-12T21:27:11.258Z,12.70
2023-10-12T21:29:38.748Z,12.70
2023-10-12T21:32:05.707Z,12.80
2023-10-12T21:34:34.269Z,12.50
2023-10-12T21:37:06.078Z,12.40
2023-10-12T21:39:42.958Z,12.50
2023-10-12T21:42:11.218Z,12.40
2023-10-12T21:44:41.016Z,12.20
2023-10-12T21:47:12.720Z,12.30
2023-10-12T21:49:40.378Z,12.30
2023-10-12T21:52:07.925Z,12.30
2023-10-12T21:54:35.775Z,12.30
2023-10-12T21:57:03.706Z,12.20
2023-10-12T21:59:30.825Z,12.20
2023-10-12T22:02:15.690Z,12.10
2023-10-12T22:04:47.123Z,11.90
2023-10-12T22:07:15.720Z,11.90
2023-10-12T22:09:47.009Z,11.90
2023-10-12T22:12:21.511Z,12.00
2023-10-12T22:15:14.818Z,11.90
2023-10-12T22:17:48.816Z,12.10
2023-10-12T22:20:20.141Z,12.10
2023-10-12T22:22:47.014Z,12.10
2023-10-12T22:25:16.448Z,11.80
2023-10-12T22:27:45.948Z,11.90
2023-10-12T22:30:18.752Z,11.70
2023-10-12T22:32:45.911Z,11.40
2023-10-12T22:35:13.042Z,11.40
2023-10-12T22:37:40.366Z,11.60
2023-10-12T22:40:15.473Z,11.70
2023-10-12T22:42:42.679Z,11.60
2023-10-12T22:45:16.864Z,11.60
2023-10-12T22:47:47.574Z,11.80
2023-10-12T22:50:15.696Z,11.70
2023-10-12T22:52:42.785Z,11.50
2023-10-12T22:55:16.853Z,11.40
2023-10-12T22:57:45.453Z,11.20
2023-10-12T23:00:22.489Z,11.00
2023-10-12T23:02:50.190Z,11.10
2023-10-12T23:05:17.224Z,11.10
2023-10-12T23:07:44.346Z,11.30
2023-10-12T23:10:14.449Z,11.50
2023-10-12T23:12:43.188Z,11.50
2023-10-12T23:15:12.977Z,11.40
2023-10-12T23:18:02.369Z,11.20
2023-10-12T23:20:38.391Z,11.10
2023-10-12T23:23:12.659Z,11.30
2023-10-12T23:25:44.963Z,11.20
2023-10-12T23:28:20.479Z,11.10
2023-10-12T23:30:53.673Z,11.10
2023-10-12T23:33:24.142Z,11.10
2023-10-12T23:35:54.712Z,11.20
2023-10-12T23:38:27.664Z,11.20
2023-10-12T23:41:10.186Z,11.30
2023-10-12T23:43:41.522Z,11.20
2023-10-12T23:46:12.503Z,11.00
2023-10-12T23:48:41.905Z,10.80
2023-10-12T23:51:14.434Z,10.90
2023-10-12T23:53:41.571Z,10.90
2023-10-12T23:56:16.097Z,10.90
2023-10-12T23:58:43.729Z,10.90
